createdAt,value
2023-01-22T00:02:16.538Z,101086.22
2023-01-22T00:04:43.451Z,101080.06
2023-01-22T00:07:10.460Z,101078.25
2023-01-22T00:09:37.339Z,101081.69
2023-01-22T00:12:04.584Z,101077.34
2023-01-22T00:14:31.570Z,101080.91
2023-01-22T00:16:58.724Z,101093.22
2023-01-22T00:19:25.703Z,101086.19
2023-01-22T00:21:52.582Z,101084.41
2023-01-22T00:24:19.596Z,101079.09
2023-01-22T00:26:46.457Z,101068.34
2023-01-22T00:29:13.413Z,101079.84
2023-01-22T00:31:40.500Z,101078.16
2023-01-22T00:34:08.845Z,101080.78
2023-01-22T00:36:35.757Z,101081.75
2023-01-22T00:39:02.936Z,101083.50
2023-01-22T00:41:29.888Z,101084.34
2023-01-22T00:43:56.787Z,101093.13
2023-01-22T00:46:24.475Z,101094.88
2023-01-22T00:48:51.531Z,101101.97
2023-01-22T00:51:18.644Z,101106.38
2023-01-22T00:53:46.020Z,101101.13
2023-01-22T00:56:15.023Z,101098.47
2023-01-22T00:58:42.461Z,101094.09
2023-01-22T01:01:09.523Z,101092.31
2023-01-22T01:03:37.807Z,101098.47
2023-01-22T01:06:06.215Z,101108.13
2023-01-22T01:08:39.580Z,101107.25
2023-01-22T01:11:09.635Z,101112.59
2023-01-22T01:13:39.024Z,101105.56
2023-01-22T01:16:08.918Z,101100.22
2023-01-22T01:18:35.986Z,101111.69
2023-01-22T01:21:04.354Z,101111.69
2023-01-22T01:23:31.453Z,101112.56
2023-01-22T01:25:58.472Z,101105.53
2023-01-22T01:28:26.149Z,101109.84
2023-01-22T01:30:53.087Z,101111.53
2023-01-22T01:33:20.683Z,101115.13
2023-01-22T01:35:47.547Z,101116.00
2023-01-22T01:38:14.439Z,101119.53
2023-01-22T01:40:44.123Z,101118.72
2023-01-22T01:43:18.113Z,101117.81
2023-01-22T01:45:45.109Z,101120.47
2023-01-22T01:48:37.409Z,101112.56
2023-01-22T01:51:14.540Z,101108.16
2023-01-22T01:53:43.276Z,101103.69
2023-01-22T01:56:15.039Z,101109.84
2023-01-22T01:58:44.260Z,101103.56
2023-01-22T02:01:14.018Z,101089.47
2023-01-22T02:03:41.748Z,101091.16
2023-01-22T02:06:21.970Z,101085.72
2023-01-22T02:08:50.610Z,101091.06
2023-01-22T02:11:19.138Z,101086.63
2023-01-22T02:13:51.732Z,101081.00
2023-01-22T02:16:20.360Z,101081.75
2023-01-22T02:18:49.154Z,101081.16
2023-01-22T02:21:33.952Z,101088.31
2023-01-22T02:24:01.323Z,101086.59
2023-01-22T02:26:29.203Z,101073.16
2023-01-22T02:28:56.509Z,101080.38
2023-01-22T02:31:27.064Z,101092.16
2023-01-22T02:33:54.586Z,101093.06
2023-01-22T02:36:23.202Z,101087.47
2023-01-22T02:38:50.953Z,101086.59
2023-01-22T02:41:18.211Z,101089.25
2023-01-22T02:43:45.269Z,101096.56
2023-01-22T02:46:12.161Z,101095.72
2023-01-22T02:48:39.078Z,101100.91
2023-01-22T02:51:06.624Z,101108.03
2023-01-22T02:53:33.667Z,101108.94
2023-01-22T02:56:01.091Z,101107.19
2023-01-22T02:58:28.043Z,101110.72
2023-01-22T03:00:54.967Z,101099.00
2023-01-22T03:03:21.867Z,101098.88
2023-01-22T03:05:52.861Z,101096.00
2023-01-22T03:08:20.260Z,101106.59
2023-01-22T03:10:47.278Z,101111.31
2023-01-22T03:13:32.539Z,101116.59
2023-01-22T03:16:18.193Z,101107.81
2023-01-22T03:19:03.860Z,101117.28
2023-01-22T03:21:30.615Z,101116.50
2023-01-22T03:23:57.523Z,101128.06
2023-01-22T03:26:24.612Z,101121.09
2023-01-22T03:28:51.996Z,101114.06
2023-01-22T03:31:19.641Z,101117.59
2023-01-22T03:33:46.920Z,101114.00
2023-01-22T03:36:15.592Z,101114.81
2023-01-22T03:38:49.955Z,101116.56
2023-01-22T03:41:20.155Z,101106.56
2023-01-22T03:43:48.711Z,101104.22
2023-01-22T03:46:20.260Z,101106.22
2023-01-22T03:48:51.831Z,101107.97
2023-01-22T03:51:19.985Z,101100.88
2023-01-22T03:53:48.068Z,101096.28
2023-01-22T03:56:17.767Z,101107.78
2023-01-22T03:58:45.448Z,101118.38
2023-01-22T04:01:19.817Z,101122.44
2023-01-22T04:03:47.520Z,101115.34
2023-01-22T04:06:15.239Z,101117.38
2023-01-22T04:08:46.236Z,101110.38
2023-01-22T04:11:14.339Z,101118.56
2023-01-22T04:13:43.137Z,101122.91
2023-01-22T04:16:12.336Z,101125.56
2023-01-22T04:18:57.996Z,101135.28
2023-01-22T04:21:39.728Z,101127.44
2023-01-22T04:24:09.602Z,101130.97
2023-01-22T04:26:36.456Z,101130.06
2023-01-22T04:29:03.980Z,101134.59
2023-01-22T04:31:31.392Z,101137.13
2023-01-22T04:34:30.252Z,101147.72
2023-01-22T04:37:17.283Z,101142.47
2023-01-22T04:39:44.885Z,101151.19
2023-01-22T04:42:12.039Z,101149.44
2023-01-22T04:44:39.025Z,101151.22
2023-01-22T04:47:07.834Z,101148.56
2023-01-22T04:49:36.584Z,101145.78
2023-01-22T04:52:05.470Z,101150.69
2023-01-22T04:54:32.856Z,101154.94
2023-01-22T04:56:59.757Z,101153.97
2023-01-22T04:59:27.079Z,101162.47
2023-01-22T05:01:54.098Z,101162.59
2023-01-22T05:04:22.066Z,101166.56
2023-01-22T05:06:50.213Z,101167.59
2023-01-22T05:09:17.153Z,101169.22
2023-01-22T05:11:55.299Z,101180.41
2023-01-22T05:14:23.619Z,101173.56
2023-01-22T05:16:50.576Z,101180.69
2023-01-22T05:19:17.732Z,101171.00
2023-01-22T05:21:44.668Z,101176.34
2023-01-22T05:24:15.028Z,101178.19
2023-01-22T05:26:42.707Z,101183.38
2023-01-22T05:29:26.134Z,101190.69
2023-01-22T05:32:25.347Z,101190.78
2023-01-22T05:34:55.406Z,101197.84
2023-01-22T05:37:22.341Z,101198.69
2023-01-22T05:39:51.839Z,101210.13
2023-01-22T05:42:19.238Z,101221.47
2023-01-22T05:44:48.771Z,101223.25
2023-01-22T05:47:18.201Z,101220.66
2023-01-22T05:49:50.103Z,101224.16
2023-01-22T05:52:17.117Z,101225.06
2023-01-22T05:54:45.177Z,101239.09
2023-01-22T05:57:12.340Z,101228.53
2023-01-22T05:59:39.833Z,101222.41
2023-01-22T06:02:08.443Z,101232.06
2023-01-22T06:04:40.612Z,101237.38
2023-01-22T06:07:18.003Z,101240.88
2023-01-22T06:09:45.524Z,101237.31
2023-01-22T06:12:12.488Z,101253.13
2023-01-22T06:14:39.971Z,101252.28
2023-01-22T06:17:07.812Z,101261.06
2023-01-22T06:19:37.566Z,101265.47
2023-01-22T06:22:05.555Z,101272.53
2023-01-22T06:24:49.762Z,101269.00
2023-01-22T06:27:18.252Z,101282.22
2023-01-22T06:29:53.145Z,101264.59
2023-01-22T06:32:20.773Z,101272.53
2023-01-22T06:34:47.784Z,101281.31
2023-01-22T06:37:16.167Z,101278.69
2023-01-22T06:39:43.438Z,101278.59
2023-01-22T06:42:19.935Z,101279.16
2023-01-22T06:44:47.894Z,101266.56
2023-01-22T06:47:15.097Z,101266.59
2023-01-22T06:49:41.998Z,101267.47
2023-01-22T06:52:08.918Z,101261.31
2023-01-22T06:54:35.799Z,101269.41
2023-01-22T06:57:02.953Z,101252.38
2023-01-22T06:59:33.332Z,101260.97
2023-01-22T07:02:00.252Z,101278.34
2023-01-22T07:04:27.323Z,101287.09
2023-01-22T07:06:54.207Z,101290.00
2023-01-22T07:09:21.603Z,101285.66
2023-01-22T07:11:48.606Z,101284.81
2023-01-22T07:14:15.457Z,101281.34
2023-01-22T07:16:42.435Z,101284.72
2023-01-22T07:19:09.395Z,101278.03
2023-01-22T07:21:36.295Z,101269.94
2023-01-22T07:24:03.386Z,101259.75
2023-01-22T07:26:30.388Z,101283.72
2023-01-22T07:28:57.256Z,101322.28
2023-01-22T07:31:24.136Z,101325.16
2023-01-22T07:33:51.092Z,101316.47
2023-01-22T07:36:17.963Z,101312.06
2023-01-22T07:38:44.841Z,101319.91
2023-01-22T07:41:25.203Z,101318.16
2023-01-22T07:43:53.622Z,101313.75
2023-01-22T07:46:20.670Z,101311.78
2023-01-22T07:48:47.643Z,101301.78
2023-01-22T07:51:14.691Z,101303.63
2023-01-22T07:53:42.819Z,101323.81
2023-01-22T07:56:09.713Z,101329.41
2023-01-22T07:58:36.660Z,101321.47
2023-01-22T08:01:07.575Z,101319.44
2023-01-22T08:03:34.702Z,101318.16
2023-01-22T08:06:01.577Z,101334.59
2023-01-22T08:08:28.445Z,101338.97
2023-01-22T08:10:59.507Z,101335.53
2023-01-22T08:13:26.607Z,101332.59
2023-01-22T08:15:55.166Z,101325.38
2023-01-22T08:18:23.105Z,101336.09
2023-01-22T08:20:50.093Z,101335.41
2023-01-22T08:23:17.255Z,101347.66
2023-01-22T08:25:44.169Z,101341.59
2023-01-22T08:28:11.280Z,101351.38
2023-01-22T08:30:46.130Z,101339.66
2023-01-22T08:33:15.884Z,101347.84
2023-01-22T08:35:43.012Z,101345.41
2023-01-22T08:38:09.873Z,101362.63
2023-01-22T08:40:38.054Z,101353.00
2023-01-22T08:43:05.097Z,101364.34
2023-01-22T08:45:32.071Z,101358.44
2023-01-22T08:47:59.985Z,101369.59
2023-01-22T08:50:28.936Z,101370.41
2023-01-22T08:52:59.084Z,101365.63
2023-01-22T08:55:27.890Z,101368.31
2023-01-22T08:57:56.444Z,101357.94
2023-01-22T09:00:24.633Z,101355.31
2023-01-22T09:02:51.832Z,101359.56
2023-01-22T09:05:19.203Z,101349.78
2023-01-22T09:07:46.057Z,101344.16
2023-01-22T09:10:13.348Z,101343.81
2023-01-22T09:12:40.672Z,101351.25
2023-01-22T09:15:08.201Z,101347.03
2023-01-22T09:17:35.211Z,101351.22
2023-01-22T09:20:02.229Z,101355.34
2023-01-22T09:22:29.147Z,101355.38
2023-01-22T09:24:56.174Z,101352.53
2023-01-22T09:27:23.235Z,101346.06
2023-01-22T09:29:50.132Z,101343.69
2023-01-22T09:32:17.321Z,101345.41
2023-01-22T09:34:44.410Z,101344.22
2023-01-22T09:37:11.951Z,101342.31
2023-01-22T09:39:38.907Z,101336.59
2023-01-22T09:42:10.986Z,101339.09
2023-01-22T09:44:41.041Z,101348.41
2023-01-22T09:47:11.720Z,101348.28
2023-01-22T09:49:54.318Z,101340.28
2023-01-22T09:52:24.763Z,101347.34
2023-01-22T09:54:51.618Z,101343.22
2023-01-22T09:57:31.324Z,101338.63
2023-01-22T09:59:59.201Z,101339.97
2023-01-22T10:02:37.303Z,101347.00
2023-01-22T10:05:19.931Z,101335.69
2023-01-22T10:08:12.621Z,101337.72
2023-01-22T10:10:39.950Z,101335.38
2023-01-22T10:13:14.787Z,101336.47
2023-01-22T10:15:41.918Z,101345.19
2023-01-22T10:18:17.980Z,101344.50
2023-01-22T10:20:45.395Z,101346.59
2023-01-22T10:23:22.928Z,101346.63
2023-01-22T10:25:53.336Z,101331.28
2023-01-22T10:28:25.968Z,101336.28
2023-01-22T10:30:57.969Z,101331.78
2023-01-22T10:33:27.621Z,101326.84
2023-01-22T10:35:57.071Z,101332.19
2023-01-22T10:38:31.283Z,101327.97
2023-01-22T10:41:03.848Z,101330.22
2023-01-22T10:43:32.642Z,101330.72
2023-01-22T10:46:06.202Z,101332.94
2023-01-22T10:48:33.829Z,101332.78
2023-01-22T10:51:14.136Z,101332.25
2023-01-22T10:53:57.939Z,101324.47
2023-01-22T10:56:32.329Z,101328.00
2023-01-22T10:59:03.561Z,101335.84
2023-01-22T11:01:36.003Z,101336.06
2023-01-22T11:04:14.752Z,101321.75
2023-01-22T11:06:47.530Z,101331.50
2023-01-22T11:09:26.517Z,101330.72
2023-01-22T11:12:16.671Z,101329.50
2023-01-22T11:14:47.904Z,101337.66
2023-01-22T11:17:26.868Z,101334.88
2023-01-22T11:20:18.129Z,101344.97
2023-01-22T11:22:51.162Z,101339.69
2023-01-22T11:25:18.286Z,101338.16
2023-01-22T11:28:07.683Z,101334.97
2023-01-22T11:30:46.238Z,101345.03
2023-01-22T11:33:50.356Z,101345.59
2023-01-22T11:36:27.294Z,101339.41
2023-01-22T11:39:02.118Z,101344.66
2023-01-22T11:42:13.437Z,101347.53
2023-01-22T11:44:55.978Z,101337.25
2023-01-22T11:47:56.893Z,101332.97
2023-01-22T11:50:38.744Z,101337.19
2023-01-22T11:53:23.685Z,101347.25
2023-01-22T11:55:56.694Z,101325.09
2023-01-22T11:58:45.290Z,101326.75
2023-01-22T12:01:20.814Z,101339.19
2023-01-22T12:04:05.766Z,101342.78
2023-01-22T12:07:00.626Z,101341.31
2023-01-22T12:10:01.708Z,101347.84
2023-01-22T12:12:33.348Z,101341.75
2023-01-22T12:15:12.146Z,101356.34
2023-01-22T12:17:52.805Z,101356.06
2023-01-22T12:20:20.551Z,101361.47
2023-01-22T12:22:53.992Z,101366.03
2023-01-22T12:25:44.671Z,101359.00
2023-01-22T12:28:17.111Z,101357.75
2023-01-22T12:31:04.680Z,101365.38
2023-01-22T12:33:39.147Z,101368.75
2023-01-22T12:36:10.050Z,101363.75
2023-01-22T12:38:45.696Z,101368.09
2023-01-22T12:41:39.285Z,101371.94
2023-01-22T12:44:34.365Z,101373.91
2023-01-22T12:47:10.674Z,101380.09
2023-01-22T12:49:49.764Z,101382.94
2023-01-22T12:52:39.649Z,101377.84
2023-01-22T12:55:43.244Z,101385.75
2023-01-22T12:58:28.183Z,101385.66
2023-01-22T13:01:21.074Z,101391.00
2023-01-22T13:03:59.689Z,101392.81
2023-01-22T13:06:36.133Z,101387.63
2023-01-22T13:09:06.146Z,101393.81
2023-01-22T13:11:36.609Z,101395.50
2023-01-22T13:14:21.890Z,101400.88
2023-01-22T13:17:00.165Z,101393.88
2023-01-22T13:19:50.612Z,101385.06
2023-01-22T13:22:21.682Z,101410.50
2023-01-22T13:24:50.494Z,101409.63
2023-01-22T13:27:37.660Z,101408.72
2023-01-22T13:30:27.737Z,101408.53
2023-01-22T13:33:12.414Z,101417.53
2023-01-22T13:35:44.435Z,101412.25
2023-01-22T13:38:17.123Z,101428.09
2023-01-22T13:40:51.276Z,101427.34
2023-01-22T13:43:22.847Z,101434.31
2023-01-22T13:45:52.578Z,101445.72
2023-01-22T13:48:22.297Z,101436.97
2023-01-22T13:51:06.158Z,101446.72
2023-01-22T13:53:43.245Z,101451.03
2023-01-22T13:56:26.676Z,101452.88
2023-01-22T13:59:05.958Z,101456.38
2023-01-22T14:01:35.259Z,101448.47
2023-01-22T14:04:05.625Z,101454.63
2023-01-22T14:06:45.257Z,101465.94
2023-01-22T14:09:12.314Z,101464.28
2023-01-22T14:11:40.976Z,101462.47
2023-01-22T14:14:18.318Z,101459.72
2023-01-22T14:16:45.587Z,101464.22
2023-01-22T14:19:13.422Z,101464.22
2023-01-22T14:21:41.375Z,101469.56
2023-01-22T14:24:08.531Z,101472.16
2023-01-22T14:26:35.977Z,101471.34
2023-01-22T14:29:05.712Z,101466.06
2023-01-22T14:31:32.647Z,101466.97
2023-01-22T14:33:59.580Z,101463.41
2023-01-22T14:36:26.685Z,101473.97
2023-01-22T14:38:54.970Z,101471.31
2023-01-22T14:41:21.885Z,101473.03
2023-01-22T14:43:48.863Z,101461.50
2023-01-22T14:46:15.745Z,101472.13
2023-01-22T14:48:42.659Z,101458.94
2023-01-22T14:51:11.631Z,101456.06
2023-01-22T14:53:39.025Z,101462.28
2023-01-22T14:56:06.347Z,101457.16
2023-01-22T14:58:33.294Z,101450.22
2023-01-22T15:01:00.416Z,101464.28
2023-01-22T15:03:29.844Z,101456.38
2023-01-22T15:05:57.022Z,101459.00
2023-01-22T15:08:24.049Z,101460.75
2023-01-22T15:10:50.905Z,101460.56
2023-01-22T15:13:17.768Z,101457.03
2023-01-22T15:15:44.711Z,101461.56
2023-01-22T15:18:11.658Z,101467.66
2023-01-22T15:20:39.351Z,101460.69
2023-01-22T15:23:06.257Z,101469.38
2023-01-22T15:25:34.554Z,101468.56
2023-01-22T15:28:02.996Z,101477.34
2023-01-22T15:30:30.696Z,101479.19
2023-01-22T15:32:57.587Z,101476.44
2023-01-22T15:35:24.473Z,101483.50
2023-01-22T15:37:51.425Z,101480.03
2023-01-22T15:40:18.814Z,101487.06
2023-01-22T15:42:45.927Z,101487.06
2023-01-22T15:45:12.832Z,101484.50
2023-01-22T15:47:39.714Z,101492.38
2023-01-22T15:50:07.104Z,101493.97
2023-01-22T15:52:33.992Z,101507.28
2023-01-22T15:55:00.934Z,101508.91
2023-01-22T15:57:28.009Z,101508.06
2023-01-22T15:59:55.061Z,101512.50
2023-01-22T16:02:22.082Z,101518.31
2023-01-22T16:04:49.325Z,101511.56
2023-01-22T16:07:16.369Z,101514.06
2023-01-22T16:09:43.352Z,101514.03
2023-01-22T16:12:10.358Z,101516.81
2023-01-22T16:14:37.402Z,101522.19
2023-01-22T16:17:04.311Z,101530.91
2023-01-22T16:19:31.829Z,101537.94
2023-01-22T16:21:58.889Z,101533.22
2023-01-22T16:24:25.993Z,101534.47
2023-01-22T16:26:52.887Z,101538.03
2023-01-22T16:29:19.880Z,101541.25
2023-01-22T16:31:46.897Z,101545.56
2023-01-22T16:34:16.692Z,101546.59
2023-01-22T16:36:44.471Z,101540.28
2023-01-22T16:39:18.849Z,101544.84
2023-01-22T16:41:48.935Z,101545.78
2023-01-22T16:44:18.844Z,101556.94
2023-01-22T16:46:49.785Z,101552.69
2023-01-22T16:49:26.005Z,101556.50
2023-01-22T16:51:59.341Z,101559.06
2023-01-22T16:54:30.413Z,101565.88
2023-01-22T16:57:05.356Z,101569.44
2023-01-22T16:59:34.744Z,101568.72
2023-01-22T17:02:04.909Z,101576.56
2023-01-22T17:04:32.339Z,101570.38
2023-01-22T17:07:00.262Z,101583.47
2023-01-22T17:09:33.045Z,101583.59
2023-01-22T17:12:02.468Z,101583.69
2023-01-22T17:14:31.203Z,101583.59
2023-01-22T17:16:59.126Z,101583.84
2023-01-22T17:19:26.274Z,101591.78
2023-01-22T17:21:55.364Z,101588.94
2023-01-22T17:24:23.292Z,101587.94
2023-01-22T17:26:51.211Z,101597.47
2023-01-22T17:29:19.435Z,101604.38
2023-01-22T17:31:47.249Z,101613.28
2023-01-22T17:34:15.446Z,101609.78
2023-01-22T17:36:42.577Z,101615.16
2023-01-22T17:39:15.612Z,101615.09
2023-01-22T17:41:42.903Z,101611.72
2023-01-22T17:44:10.167Z,101605.91
2023-01-22T17:46:37.197Z,101609.03
2023-01-22T17:49:04.820Z,101608.44
2023-01-22T17:51:33.903Z,101608.34
2023-01-22T17:54:03.274Z,101619.53
2023-01-22T17:56:36.223Z,101627.53
2023-01-22T17:59:05.595Z,101629.09
2023-01-22T18:01:34.252Z,101623.00
2023-01-22T18:04:05.012Z,101630.63
2023-01-22T18:06:32.500Z,101633.97
2023-01-22T18:09:00.815Z,101636.06
2023-01-22T18:11:30.034Z,101630.75
2023-01-22T18:13:58.846Z,101639.53
2023-01-22T18:16:29.729Z,101642.16
2023-01-22T18:18:58.400Z,101651.97
2023-01-22T18:21:25.885Z,101643.66
2023-01-22T18:23:52.920Z,101644.09
2023-01-22T18:26:23.197Z,101644.28
2023-01-22T18:28:51.351Z,101641.75
2023-01-22T18:31:22.357Z,101641.72
2023-01-22T18:33:49.937Z,101638.25
2023-01-22T18:36:19.033Z,101645.25
2023-01-22T18:38:45.989Z,101653.94
2023-01-22T18:41:23.836Z,101650.19
2023-01-22T18:43:56.825Z,101651.28
2023-01-22T18:46:25.975Z,101654.97
2023-01-22T18:48:55.178Z,101656.06
2023-01-22T18:51:23.321Z,101665.66
2023-01-22T18:53:50.428Z,101654.69
2023-01-22T18:56:17.866Z,101665.00
2023-01-22T18:58:46.024Z,101684.59
2023-01-22T19:01:20.246Z,101689.63
2023-01-22T19:03:51.670Z,101693.97
2023-01-22T19:06:22.853Z,101694.47
2023-01-22T19:08:49.868Z,101696.69
2023-01-22T19:11:17.041Z,101689.47
2023-01-22T19:13:45.038Z,101700.06
2023-01-22T19:16:16.222Z,101692.75
2023-01-22T19:18:46.709Z,101702.31
2023-01-22T19:21:17.672Z,101701.75
2023-01-22T19:23:50.695Z,101701.81
2023-01-22T19:26:31.885Z,101697.03
2023-01-22T19:29:04.673Z,101705.09
2023-01-22T19:31:34.774Z,101696.25
2023-01-22T19:34:03.138Z,101692.47
2023-01-22T19:36:33.124Z,101698.25
2023-01-22T19:39:01.662Z,101706.28
2023-01-22T19:41:28.919Z,101708.09
2023-01-22T19:43:57.903Z,101709.16
2023-01-22T19:46:28.886Z,101703.38
2023-01-22T19:48:56.976Z,101711.19
2023-01-22T19:51:27.123Z,101703.19
2023-01-22T19:53:54.901Z,101713.81
2023-01-22T19:56:28.185Z,101707.13
2023-01-22T19:58:59.749Z,101700.97
2023-01-22T20:01:26.917Z,101707.88
2023-01-22T20:03:55.748Z,101716.38
2023-01-22T20:06:23.531Z,101721.06
2023-01-22T20:08:51.218Z,101716.25
2023-01-22T20:11:18.888Z,101717.09
2023-01-22T20:13:47.678Z,101731.06
2023-01-22T20:16:29.464Z,101725.03
2023-01-22T20:18:57.886Z,101727.81
2023-01-22T20:21:27.023Z,101726.91
2023-01-22T20:23:54.663Z,101731.06
2023-01-22T20:26:22.936Z,101733.38
2023-01-22T20:28:50.609Z,101736.63
2023-01-22T20:31:23.401Z,101746.94
2023-01-22T20:33:52.916Z,101746.50
2023-01-22T20:36:21.240Z,101744.84
2023-01-22T20:38:52.626Z,101743.72
2023-01-22T20:41:20.895Z,101745.84
2023-01-22T20:43:48.464Z,101749.00
2023-01-22T20:46:26.126Z,101748.25
2023-01-22T20:48:56.022Z,101742.88
2023-01-22T20:51:26.444Z,101750.75
2023-01-22T20:53:54.783Z,101755.72
2023-01-22T20:56:28.978Z,101762.16
2023-01-22T20:59:01.452Z,101761.94
2023-01-22T21:01:29.027Z,101759.72
2023-01-22T21:03:57.415Z,101757.41
2023-01-22T21:06:27.532Z,101767.50
2023-01-22T21:08:56.434Z,101765.19
2023-01-22T21:11:24.688Z,101770.47
2023-01-22T21:13:52.858Z,101759.41
2023-01-22T21:16:26.465Z,101769.19
2023-01-22T21:18:55.839Z,101765.75
2023-01-22T21:21:22.792Z,101766.19
2023-01-22T21:23:52.476Z,101764.25
2023-01-22T21:26:23.033Z,101759.84
2023-01-22T21:28:54.496Z,101776.00
2023-01-22T21:31:22.455Z,101768.78
2023-01-22T21:33:50.389Z,101771.94
2023-01-22T21:36:18.502Z,101777.78
2023-01-22T21:38:47.668Z,101780.97
2023-01-22T21:41:17.544Z,101778.66
2023-01-22T21:44:05.315Z,101783.63
2023-01-22T21:46:43.627Z,101781.63
2023-01-22T21:49:19.947Z,101780.03
2023-01-22T21:51:51.302Z,101772.50
2023-01-22T21:54:21.662Z,101779.75
2023-01-22T21:56:49.251Z,101780.31
2023-01-22T21:59:16.484Z,101773.16
2023-01-22T22:01:45.102Z,101770.38
2023-01-22T22:04:13.614Z,101766.25
2023-01-22T22:06:40.799Z,101772.84
2023-01-22T22:09:12.849Z,101767.91
2023-01-22T22:11:39.959Z,101769.44
2023-01-22T22:14:09.805Z,101764.38
2023-01-22T22:16:37.869Z,101763.91
2023-01-22T22:19:04.832Z,101765.13
2023-01-22T22:21:31.976Z,101764.00
2023-01-22T22:23:59.219Z,101755.97
2023-01-22T22:26:26.741Z,101760.63
2023-01-22T22:28:53.949Z,101751.03
2023-01-22T22:31:20.968Z,101756.38
2023-01-22T22:33:50.057Z,101752.75
2023-01-22T22:36:21.052Z,101752.34
2023-01-22T22:38:48.443Z,101748.03
2023-01-22T22:41:19.567Z,101750.19
2023-01-22T22:43:50.997Z,101753.09
2023-01-22T22:46:19.485Z,101759.38
2023-01-22T22:48:47.003Z,101747.78
2023-01-22T22:51:18.164Z,101746.22
2023-01-22T22:53:45.057Z,101753.66
2023-01-22T22:56:12.590Z,101744.03
2023-01-22T22:58:39.858Z,101737.41
2023-01-22T23:01:12.848Z,101734.84
2023-01-22T23:03:41.157Z,101744.38
2023-01-22T23:06:12.094Z,101752.19
2023-01-22T23:08:48.520Z,101748.09
2023-01-22T23:11:16.030Z,101746.72
2023-01-22T23:13:49.503Z,101751.22
2023-01-22T23:16:19.051Z,101755.34
2023-01-22T23:18:48.858Z,101750.25
2023-01-22T23:21:19.227Z,101759.41
2023-01-22T23:23:46.504Z,101760.06
2023-01-22T23:26:19.716Z,101761.91
2023-01-22T23:28:47.690Z,101764.09
2023-01-22T23:31:17.338Z,101764.13
2023-01-22T23:33:44.448Z,101757.97
2023-01-22T23:36:13.910Z,101768.13
2023-01-22T23:38:41.226Z,101770.34
2023-01-22T23:41:15.323Z,101781.66
2023-01-22T23:43:43.457Z,101778.38
2023-01-22T23:46:12.919Z,101780.88
2023-01-22T23:48:40.279Z,101787.81
2023-01-22T23:51:08.896Z,101799.22
2023-01-22T23:53:45.039Z,101804.81
2023-01-22T23:56:13.100Z,101813.28
2023-01-22T23:58:40.734Z,101808.31
